Time;durP1;ratioP1;P1;durP2;ratioP2;P2;SDS_P1;SDS_P2;PMS_P1;PMS_P2;Temp;Humidity;BMP_temperature;BMP_pressure;BME280_temperature;BME280_humidity;BME280_pressure;Samples;Min_cycle;Max_cycle;Signal;HPM_P1;HPM_P2
2022/04/14 00:00:33;;;;;;;6.40;1.27;;;;;;;16.86;39.15;102041.34;5054598;28;20413;-53
2022/04/14 00:02:59;;;;;;;6.80;1.33;;;;;;;16.87;39.65;102046.53;5052951;28;20538;-57
2022/04/14 00:05:26;;;;;;;4.72;1.10;;;;;;;16.79;40.02;102037.88;5053892;28;20044;-57
2022/04/14 00:07:52;;;;;;;4.13;1.30;;;;;;;16.92;40.02;102040.47;5054600;28;20032;-57
2022/04/14 00:10:18;;;;;;;4.65;1.33;;;;;;;16.81;39.69;102033.91;5054686;28;20029;-57
2022/04/14 00:12:45;;;;;;;6.40;1.45;;;;;;;16.58;39.67;102020.09;5053599;28;20021;-57
2022/04/14 00:15:13;;;;;;;4.20;1.02;;;;;;;16.59;38.98;102011.75;5054210;28;20029;-57
2022/04/14 00:17:39;;;;;;;4.07;1.40;;;;;;;16.16;39.97;102024.22;5050190;28;20029;-57
2022/04/14 00:20:08;;;;;;;6.97;1.60;;;;;;;16.37;39.89;102023.94;5054257;28;20373;-57
2022/04/14 00:22:35;;;;;;;4.38;1.15;;;;;;;16.20;40.97;102028.16;5036879;28;20059;-57
2022/04/14 00:25:02;;;;;;;5.43;1.40;;;;;;;16.32;41.08;102038.13;5054377;28;20021;-57
2022/04/14 00:27:29;;;;;;;7.57;1.20;;;;;;;16.16;40.93;102037.75;5052135;28;20017;-56
2022/04/14 00:29:55;;;;;;;3.45;1.00;;;;;;;16.04;40.67;102026.78;5052282;28;20068;-57
2022/04/14 00:32:21;;;;;;;3.13;1.40;;;;;;;16.20;41.58;102018.19;5045657;28;20489;-56
2022/04/14 00:34:47;;;;;;;3.70;1.13;;;;;;;16.21;40.67;102029.81;5053634;28;20025;-56
2022/04/14 00:37:17;;;;;;;3.85;1.10;;;;;;;15.94;41.32;102039.91;5053060;28;20033;-56
2022/04/14 00:39:44;;;;;;;4.03;1.35;;;;;;;15.86;41.82;102043.66;5052511;28;20438;-56
2022/04/14 00:42:11;;;;;;;3.30;1.25;;;;;;;15.80;42.43;102048.03;5033222;28;20033;-56
2022/04/14 00:44:38;;;;;;;3.58;1.08;;;;;;;15.65;42.79;102042.03;5033617;28;20026;-56
2022/04/14 00:47:06;;;;;;;4.72;1.20;;;;;;;15.70;42.18;102036.00;5054025;28;20115;-56
2022/04/14 00:49:33;;;;;;;5.72;1.25;;;;;;;15.50;43.16;102044.13;5052632;28;20055;-55
2022/04/14 00:52:04;;;;;;;5.15;1.50;;;;;;;15.36;43.30;102043.28;5053365;28;20480;-56
2022/04/14 00:54:31;;;;;;;3.83;1.08;;;;;;;15.50;43.21;102044.13;5053165;28;20033;-56
2022/04/14 00:56:59;;;;;;;4.07;1.20;;;;;;;15.42;42.87;102042.44;5053389;28;20017;-55
2022/04/14 00:59:25;;;;;;;4.75;1.25;;;;;;;15.25;43.01;102049.31;5052335;28;20047;-55
2022/04/14 01:01:53;;;;;;;4.88;1.48;;;;;;;15.27;43.30;102047.25;5052813;28;20021;-56
2022/04/14 01:04:19;;;;;;;8.30;1.58;;;;;;;15.13;42.89;102045.56;5052113;28;20537;-55
2022/04/14 01:06:46;;;;;;;5.13;1.30;;;;;;;15.00;43.43;102044.53;5051121;28;20057;-55
2022/04/14 01:09:16;;;;;;;6.18;1.50;;;;;;;14.84;43.79;102034.16;5053119;28;20029;-55
2022/04/14 01:11:54;;;;;;;3.45;1.60;;;;;;;14.87;43.14;102036.41;5053075;28;20115;-55
2022/04/14 01:14:37;;;;;;;4.30;1.00;;;;;;;14.74;42.22;102026.44;5053215;28;20035;-55
2022/04/14 01:17:06;;;;;;;5.10;1.30;;;;;;;14.73;41.58;102026.66;5053276;28;20028;-55
2022/04/14 01:19:34;;;;;;;5.90;1.38;;;;;;;14.71;42.28;102029.56;5051932;28;20021;-55
2022/04/14 01:22:30;;;;;;;5.32;1.10;;;;;;;14.60;42.15;102021.22;5040546;28;20040;-55
2022/04/14 01:24:58;;;;;;;5.40;1.38;;;;;;;14.55;42.74;102015.63;5045813;28;20481;-54
2022/04/14 01:27:26;;;;;;;2.67;1.38;;;;;;;14.61;41.81;102029.13;5052920;28;20033;-54
2022/04/14 01:29:52;;;;;;;10.77;1.58;;;;;;;14.61;41.99;102039.09;5047028;28;20074;-54
2022/04/14 01:32:20;;;;;;;4.25;1.15;;;;;;;14.49;42.38;102038.81;5044143;28;20029;-55
2022/04/14 01:34:46;;;;;;;3.13;1.00;;;;;;;14.59;42.31;102035.75;5052800;28;20467;-55
2022/04/14 01:37:13;;;;;;;4.78;1.30;;;;;;;14.35;42.58;102029.84;5052435;28;20460;-56
2022/04/14 01:39:39;;;;;;;3.78;0.85;;;;;;;14.53;41.88;102032.00;5052571;28;20036;-56
2022/04/14 01:42:06;;;;;;;2.90;1.13;;;;;;;14.44;42.08;102028.63;5051399;28;20021;-55
2022/04/14 01:44:32;;;;;;;3.50;1.02;;;;;;;14.17;42.24;102037.66;5047345;28;20147;-55
2022/04/14 01:46:59;;;;;;;3.78;1.30;;;;;;;14.15;41.72;102028.91;5034993;28;20021;-56
2022/04/14 01:49:25;;;;;;;6.18;1.05;;;;;;;14.18;42.01;102021.28;5041401;28;20071;-54
2022/04/14 01:51:51;;;;;;;8.32;1.63;;;;;;;14.17;42.52;102016.09;5041659;28;20021;-56
2022/04/14 01:54:18;;;;;;;2.63;0.82;;;;;;;14.26;42.48;102023.78;5014740;28;20029;-56
2022/04/14 01:56:45;;;;;;;11.38;1.38;;;;;;;14.11;42.92;102016.91;5050191;28;20416;-55
2022/04/14 01:59:12;;;;;;;6.03;1.35;;;;;;;13.96;43.26;102006.28;5052585;28;20040;-55
2022/04/14 02:01:39;;;;;;;7.38;1.23;;;;;;;13.96;42.88;102007.09;5048654;28;20439;-56
2022/04/14 02:04:07;;;;;;;4.90;1.27;;;;;;;13.79;43.63;102013.84;5046034;28;20025;-54
2022/04/14 02:06:34;;;;;;;9.82;1.30;;;;;;;13.63;44.71;101998.84;5038645;28;20021;-56
2022/04/14 02:09:00;;;;;;;10.48;1.73;;;;;;;13.63;44.97;101998.03;5049374;28;20025;-56
2022/04/14 02:11:26;;;;;;;8.63;1.42;;;;;;;13.66;45.00;101986.88;5044789;28;20056;-56
2022/04/14 02:13:53;;;;;;;4.93;1.17;;;;;;;13.50;45.78;101982.66;5049584;28;20033;-54
2022/04/14 02:16:19;;;;;;;5.65;1.30;;;;;;;13.56;45.99;101991.78;5051486;28;20053;-56
2022/04/14 02:18:45;;;;;;;6.50;1.30;;;;;;;13.50;47.16;101992.56;5051327;28;20031;-55
2022/04/14 02:21:11;;;;;;;3.83;1.17;;;;;;;13.41;47.15;102003.47;5035086;28;20115;-55
2022/04/14 02:23:38;;;;;;;5.28;1.30;;;;;;;13.36;47.49;101997.84;5034161;28;20484;-55
2022/04/14 02:26:04;;;;;;;5.03;1.85;;;;;;;13.24;48.29;101993.22;5051777;28;20099;-55
2022/04/14 02:28:30;;;;;;;6.50;1.85;;;;;;;13.19;48.94;101996.44;5050800;28;20388;-56
2022/04/14 02:30:56;;;;;;;4.78;1.35;;;;;;;13.15;48.97;102006.75;5051640;28;20186;-55
2022/04/14 02:33:23;;;;;;;4.13;1.27;;;;;;;13.12;48.84;102006.31;5049653;28;20029;-54
2022/04/14 02:35:49;;;;;;;3.92;1.52;;;;;;;13.17;49.56;102004.72;5051985;28;20477;-54
2022/04/14 02:38:15;;;;;;;4.95;1.20;;;;;;;13.14;49.32;102005.09;5050488;28;20063;-56
2022/04/14 02:40:41;;;;;;;10.43;1.95;;;;;;;13.07;49.67;102000.69;5042620;28;20499;-55
2022/04/14 02:43:08;;;;;;;4.18;0.93;;;;;;;13.04;48.77;101996.53;5047467;28;20049;-54
2022/04/14 02:45:34;;;;;;;6.20;1.33;;;;;;;12.97;49.09;101995.66;5051843;28;20021;-55
2022/04/14 02:48:00;;;;;;;6.47;1.35;;;;;;;13.00;48.70;101981.84;5019741;28;20254;-54
2022/04/14 02:50:26;;;;;;;5.32;1.20;;;;;;;13.07;49.11;101981.88;5031723;28;20025;-54
2022/04/14 02:52:54;;;;;;;3.83;1.38;;;;;;;12.98;49.61;101993.78;5031610;28;20029;-54
2022/04/14 02:55:21;;;;;;;7.35;2.15;;;;;;;12.96;49.94;102002.06;5031667;28;20549;-50
2022/04/14 02:57:48;;;;;;;4.55;1.30;;;;;;;13.05;49.85;102002.75;5031548;28;20032;-54
2022/04/14 03:00:15;;;;;;;4.95;1.23;;;;;;;12.94;50.66;101991.50;5048959;28;20027;-55
2022/04/14 03:02:42;;;;;;;7.97;1.40;;;;;;;12.99;50.58;101990.91;5051448;28;20032;-53
2022/04/14 03:05:09;;;;;;;5.30;1.75;;;;;;;12.93;50.76;102008.63;5051462;28;20076;-54
2022/04/14 03:07:36;;;;;;;3.88;1.30;;;;;;;12.84;51.99;101998.22;5046594;28;20033;-55
2022/04/14 03:10:04;;;;;;;4.22;1.35;;;;;;;12.77;52.58;101983.88;5032678;28;20032;-54
2022/04/14 03:12:41;;;;;;;3.85;1.35;;;;;;;12.62;54.07;101989.34;5042261;28;20022;-54
2022/04/14 03:15:08;;;;;;;5.88;1.50;;;;;;;12.58;54.79;101983.50;5031613;28;20079;-55
2022/04/14 03:17:35;;;;;;;8.85;1.52;;;;;;;12.53;54.62;101998.53;5033763;28;20515;-54
2022/04/14 03:20:01;;;;;;;6.07;1.83;;;;;;;12.49;54.00;101994.53;5035540;28;20025;-54
2022/04/14 03:22:33;;;;;;;5.47;1.50;;;;;;;12.53;53.95;101995.84;5050986;28;20109;-54
2022/04/14 03:25:01;;;;;;;8.63;1.60;;;;;;;12.58;53.99;101982.66;5055011;28;20132;-54
2022/04/14 03:27:27;;;;;;;5.35;1.70;;;;;;;12.52;54.30;101978.91;5055378;28;20020;-54
2022/04/14 03:29:54;;;;;;;5.95;1.65;;;;;;;12.44;54.15;101973.66;5047783;23;20057;-54
2022/04/14 03:32:22;;;;;;;9.77;1.52;;;;;;;12.48;54.40;101977.59;5034878;28;20048;-53
2022/04/14 03:34:49;;;;;;;5.75;1.42;;;;;;;12.45;53.78;101977.19;5034961;28;20022;-54
2022/04/14 03:37:15;;;;;;;5.10;1.58;;;;;;;12.48;54.00;101987.53;5033867;28;20035;-53
2022/04/14 03:39:41;;;;;;;8.27;1.75;;;;;;;12.49;53.62;101997.22;5034964;28;20036;-54
2022/04/14 03:42:08;;;;;;;4.13;1.50;;;;;;;12.43;54.34;102004.19;5034712;28;20030;-54
2022/04/14 03:44:34;;;;;;;6.97;1.52;;;;;;;12.49;54.58;102010.66;5035100;28;20029;-54
2022/04/14 03:47:00;;;;;;;7.35;1.75;;;;;;;12.42;54.91;102005.22;5033831;28;20036;-51
2022/04/14 03:49:26;;;;;;;7.57;1.45;;;;;;;12.43;54.05;102007.72;5034779;28;20025;-53
2022/04/14 03:51:54;;;;;;;5.32;1.42;;;;;;;12.49;55.13;102010.66;5034241;28;20461;-55
2022/04/14 03:54:20;;;;;;;4.88;1.20;;;;;;;12.32;55.51;102008.19;5034750;28;20045;-53
2022/04/14 03:56:48;;;;;;;10.35;1.35;;;;;;;12.39;54.87;102002.94;5035340;28;20479;-54
2022/04/14 03:59:16;;;;;;;13.20;2.20;;;;;;;12.30;54.97;102006.75;5035143;28;20033;-53
2022/04/14 04:01:42;;;;;;;5.53;1.30;;;;;;;12.29;55.54;102011.28;5034826;28;20508;-53
2022/04/14 04:04:08;;;;;;;4.78;1.02;;;;;;;12.38;55.03;101999.41;5035406;28;20033;-50
2022/04/14 04:06:34;;;;;;;5.22;1.25;;;;;;;12.41;54.78;102004.41;5032379;28;20032;-50
2022/04/14 04:09:00;;;;;;;7.03;1.30;;;;;;;12.33;55.19;102012.56;5015207;28;20037;-52
2022/04/14 04:11:27;;;;;;;4.38;1.60;;;;;;;12.37;54.78;102034.50;5015230;28;20029;-52
2022/04/14 04:13:53;;;;;;;7.35;1.42;;;;;;;12.36;54.79;102033.66;5031485;28;20021;-54
2022/04/14 04:16:19;;;;;;;8.18;1.40;;;;;;;12.35;54.96;102020.44;5034838;28;20053;-53
2022/04/14 04:18:45;;;;;;;5.25;1.38;;;;;;;12.22;55.29;102022.97;5033580;28;20503;-52
2022/04/14 04:21:12;;;;;;;9.50;1.63;;;;;;;12.32;55.78;102012.75;5034482;28;20226;-53
2022/04/14 04:23:38;;;;;;;5.63;1.77;;;;;;;12.27;55.36;102007.97;5014090;28;20036;-54
2022/04/14 04:26:04;;;;;;;8.30;1.90;;;;;;;12.19;54.96;102015.28;5014986;28;20030;-53
2022/04/14 04:28:30;;;;;;;5.55;1.42;;;;;;;12.13;55.34;102019.56;5017199;28;20080;-54
2022/04/14 04:30:57;;;;;;;5.93;1.50;;;;;;;12.14;55.65;102021.22;5026358;28;20029;-50
2022/04/14 04:33:23;;;;;;;6.65;1.63;;;;;;;12.29;54.93;102013.13;5029900;28;20026;-54
2022/04/14 04:35:50;;;;;;;5.80;1.65;;;;;;;12.21;55.07;102014.06;5020321;28;20026;-52
2022/04/14 04:38:17;;;;;;;6.65;1.45;;;;;;;12.10;55.60;102026.13;5025228;28;20064;-52
2022/04/14 04:40:43;;;;;;;7.63;1.65;;;;;;;12.25;55.63;102028.78;5023473;28;20069;-52
2022/04/14 04:43:09;;;;;;;4.95;1.45;;;;;;;12.17;55.39;102020.00;5014728;28;20108;-54
2022/04/14 04:45:36;;;;;;;7.00;1.58;;;;;;;12.25;55.02;102017.22;5023410;28;20084;-53
2022/04/14 04:48:04;;;;;;;4.50;1.42;;;;;;;12.25;55.09;102015.34;5014261;28;20053;-50
2022/04/14 04:50:31;;;;;;;6.78;2.45;;;;;;;12.15;55.58;102020.19;5025406;28;20095;-51
2022/04/14 04:52:57;;;;;;;5.90;1.65;;;;;;;12.23;55.26;102017.41;5029885;28;20050;-51
2022/04/14 04:55:23;;;;;;;5.93;2.00;;;;;;;12.14;55.82;102016.66;5021451;28;20030;-51
2022/04/14 04:57:50;;;;;;;10.50;1.80;;;;;;;12.21;55.12;102019.44;5021190;28;20490;-50
2022/04/14 05:00:16;;;;;;;4.95;1.40;;;;;;;12.19;55.41;102005.38;5012215;28;20030;-54
2022/04/14 05:02:43;;;;;;;6.25;1.35;;;;;;;12.23;55.75;102003.16;5018079;28;20071;-53
2022/04/14 05:05:09;;;;;;;5.95;1.50;;;;;;;12.22;55.06;101988.91;5013898;28;20044;-53
2022/04/14 05:07:35;;;;;;;5.10;1.40;;;;;;;12.28;55.36;101981.94;5033981;28;20060;-49
2022/04/14 05:10:01;;;;;;;6.75;1.60;;;;;;;12.22;55.44;101994.28;5015246;28;20063;-53
2022/04/14 05:12:28;;;;;;;6.13;1.45;;;;;;;12.10;55.98;101993.06;5033212;28;20036;-53
2022/04/14 05:14:54;;;;;;;4.72;1.55;;;;;;;12.12;55.64;101994.56;5033771;28;20401;-55
2022/04/14 05:17:20;;;;;;;6.53;1.45;;;;;;;12.15;56.02;102004.06;5031988;28;20037;-53
2022/04/14 05:19:46;;;;;;;9.07;1.73;;;;;;;12.10;56.11;102006.50;5031772;28;20044;-53
2022/04/14 05:22:12;;;;;;;3.42;1.08;;;;;;;12.24;55.42;101997.59;5032500;28;20029;-51
2022/04/14 05:24:39;;;;;;;5.47;1.33;;;;;;;12.30;54.60;101994.16;5034058;28;20512;-53
2022/04/14 05:27:05;;;;;;;6.05;1.55;;;;;;;12.21;55.75;101987.22;5032928;28;20034;-53
2022/04/14 05:29:31;;;;;;;5.22;1.30;;;;;;;12.15;56.06;101996.03;5033295;28;20555;-51
2022/04/14 05:31:57;;;;;;;6.15;1.50;;;;;;;12.20;55.90;101993.59;5031445;28;20025;-53
2022/04/14 05:34:24;;;;;;;5.60;1.52;;;;;;;12.19;55.98;102000.00;5026121;28;20518;-54
2022/04/14 05:36:50;;;;;;;3.95;1.33;;;;;;;12.12;56.31;101997.25;5019785;28;20044;-51
2022/04/14 05:39:16;;;;;;;5.97;1.30;;;;;;;12.15;56.25;102001.41;5013619;28;20038;-54
2022/04/14 05:41:43;;;;;;;5.90;1.17;;;;;;;12.18;55.92;102011.78;5026460;28;20021;-53
2022/04/14 05:44:09;;;;;;;6.10;1.40;;;;;;;12.12;56.62;102004.47;5032897;28;20029;-53
2022/04/14 05:46:35;;;;;;;8.73;1.85;;;;;;;12.00;56.57;101996.06;5031095;28;20040;-52
2022/04/14 05:49:02;;;;;;;5.03;1.10;;;;;;;11.92;57.86;101977.38;5031384;28;20104;-53
2022/04/14 05:51:28;;;;;;;4.45;1.45;;;;;;;12.12;56.39;101980.31;5032082;28;20140;-53
2022/04/14 05:53:54;;;;;;;3.38;1.70;;;;;;;12.15;57.15;101982.59;5016807;28;20076;-52
2022/04/14 05:56:20;;;;;;;5.72;1.40;;;;;;;12.14;56.66;101972.91;5015715;28;20060;-50
2022/04/14 05:58:47;;;;;;;4.30;1.17;;;;;;;12.09;56.29;101969.94;5032643;28;20125;-52
2022/04/14 06:01:14;;;;;;;4.10;1.10;;;;;;;12.00;56.18;101974.59;5029388;28;20029;-53
2022/04/14 06:03:40;;;;;;;4.00;1.40;;;;;;;12.04;56.02;101975.03;5028224;28;20053;-53
2022/04/14 06:06:09;;;;;;;6.50;1.40;;;;;;;12.01;56.32;101978.94;5013144;28;20026;-52
2022/04/14 06:08:35;;;;;;;3.80;1.40;;;;;;;12.08;56.09;101982.53;5023559;28;20044;-52
2022/04/14 06:11:01;;;;;;;5.13;1.20;;;;;;;12.10;56.28;101974.28;5032634;28;20017;-53
2022/04/14 06:13:28;;;;;;;8.43;1.27;;;;;;;11.95;57.14;101977.00;5031798;28;20029;-52
2022/04/14 06:15:54;;;;;;;6.10;1.00;;;;;;;11.85;57.15;101976.47;5031768;28;20425;-51
2022/04/14 06:18:21;;;;;;;3.58;1.40;;;;;;;11.72;58.48;101962.88;5030586;28;20057;-51
2022/04/14 06:20:52;;;;;;;5.07;1.52;;;;;;;11.61;59.38;101989.13;5030922;28;20076;-52
2022/04/14 06:23:19;;;;;;;3.75;1.35;;;;;;;11.57;59.75;101985.13;5028886;28;20496;-52
2022/04/14 06:25:51;;;;;;;3.78;1.08;;;;;;;11.65;59.88;101978.84;5030759;28;20440;-50
2022/04/14 06:28:19;;;;;;;8.93;1.38;;;;;;;11.66;60.31;101988.56;5012059;28;20489;-53
2022/04/14 06:30:51;;;;;;;6.63;1.20;;;;;;;11.57;59.85;101977.09;5023612;28;20030;-52
2022/04/14 06:33:19;;;;;;;4.07;1.00;;;;;;;11.66;59.09;101983.22;5032396;28;20523;-52
2022/04/14 06:35:45;;;;;;;3.50;1.33;;;;;;;11.74;59.09;101985.78;5030243;28;20034;-53
2022/04/14 06:38:11;;;;;;;4.15;1.40;;;;;;;11.69;58.52;101977.47;5030929;28;20381;-52
2022/04/14 06:40:38;;;;;;;3.80;1.00;;;;;;;11.73;58.62;101973.41;5031601;28;20053;-53
2022/04/14 06:43:04;;;;;;;5.55;1.30;;;;;;;11.61;60.09;101972.19;5030869;28;20025;-53
2022/04/14 06:45:31;;;;;;;3.00;1.17;;;;;;;11.62;60.28;101965.81;5031099;28;20437;-52
2022/04/14 06:47:58;;;;;;;6.07;1.10;;;;;;;11.54;61.99;101963.22;5031029;28;20057;-53
2022/04/14 06:50:24;;;;;;;7.10;1.42;;;;;;;11.51;61.83;101960.91;5031653;28;20032;-51
2022/04/14 06:52:52;;;;;;;6.53;1.25;;;;;;;11.52;62.34;101955.34;5028809;28;20033;-49
2022/04/14 06:55:21;;;;;;;2.55;1.20;;;;;;;11.50;62.53;101948.53;5012129;28;20461;-51
2022/04/14 06:57:48;;;;;;;3.47;1.00;;;;;;;11.48;62.83;101950.53;5020336;28;20040;-49
2022/04/14 07:00:15;;;;;;;5.53;1.30;;;;;;;11.45;62.84;101948.25;5029351;28;20033;-49
2022/04/14 07:02:52;;;;;;;5.25;1.05;;;;;;;11.52;62.72;101946.50;5030498;28;20029;-49
2022/04/14 07:05:19;;;;;;;3.53;1.40;;;;;;;11.59;62.63;101944.72;5030128;28;21068;-50
2022/04/14 07:07:46;;;;;;;4.45;1.05;;;;;;;11.73;62.34;101954.63;5029498;28;20038;-49
2022/04/14 07:10:13;;;;;;;5.57;1.20;;;;;;;11.74;61.94;101963.50;5029978;28;20037;-49
2022/04/14 07:12:40;;;;;;;6.60;1.23;;;;;;;11.73;61.11;101962.66;5030144;28;20025;-50
2022/04/14 07:15:07;;;;;;;6.88;1.63;;;;;;;11.81;61.27;101953.69;5030661;28;20513;-53
2022/04/14 07:17:34;;;;;;;4.00;1.15;;;;;;;11.86;60.70;101954.81;5030663;28;20033;-49
2022/04/14 07:20:03;;;;;;;3.20;1.00;;;;;;;11.95;60.91;101952.03;5031652;28;20033;-50
2022/04/14 07:22:31;;;;;;;8.57;1.75;;;;;;;11.85;61.40;101953.16;5030409;28;20021;-50
2022/04/14 07:24:59;;;;;;;6.03;1.38;;;;;;;11.82;61.94;101956.19;5030671;28;20057;-51
2022/04/14 07:27:26;;;;;;;5.82;1.20;;;;;;;11.94;61.06;101953.91;5030736;28;20037;-51
2022/04/14 07:29:52;;;;;;;6.10;1.20;;;;;;;12.00;62.03;101952.31;5010856;28;20049;-51
2022/04/14 07:32:19;;;;;;;5.55;1.55;;;;;;;11.95;61.97;101952.88;5030179;28;20128;-48
2022/04/14 07:34:45;;;;;;;8.25;1.55;;;;;;;11.94;62.12;101945.84;5030804;28;20521;-49
2022/04/14 07:37:11;;;;;;;7.68;1.90;;;;;;;11.88;62.34;101944.75;5031169;28;20138;-50
2022/04/14 07:39:37;;;;;;;7.22;1.55;;;;;;;11.99;62.82;101953.31;5030693;28;20041;-50
2022/04/14 07:42:03;;;;;;;7.10;1.10;;;;;;;11.81;64.91;101941.13;5030471;28;20033;-51
2022/04/14 07:44:30;;;;;;;4.60;1.25;;;;;;;12.00;63.95;101937.03;5031146;28;20057;-51
2022/04/14 07:46:56;;;;;;;4.13;1.30;;;;;;;11.99;64.82;101940.72;5030467;28;20041;-49
2022/04/14 07:49:22;;;;;;;5.47;1.27;;;;;;;12.00;64.86;101936.22;5030284;28;20463;-52
2022/04/14 07:51:48;;;;;;;6.32;1.42;;;;;;;11.79;65.81;101931.59;5030030;28;20675;-48
2022/04/14 07:54:14;;;;;;;6.10;1.30;;;;;;;11.86;64.89;101932.53;5024056;28;20056;-51
2022/04/14 07:56:41;;;;;;;3.55;1.50;;;;;;;11.76;64.37;101929.25;5025927;28;20057;-49
2022/04/14 07:59:07;;;;;;;5.28;1.65;;;;;;;11.73;65.89;101929.66;5030070;28;20025;-53
2022/04/14 08:01:33;;;;;;;12.77;1.90;;;;;;;11.85;65.46;101917.44;5030071;28;20528;-53
2022/04/14 08:03:59;;;;;;;7.97;1.77;;;;;;;11.81;67.00;101921.47;5030274;28;20017;-52
2022/04/14 08:06:27;;;;;;;5.50;1.77;;;;;;;11.78;66.91;101933.44;5030144;28;20461;-49
2022/04/14 08:08:54;;;;;;;4.78;1.25;;;;;;;11.87;65.27;101916.22;5030525;28;20036;-51
2022/04/14 08:11:20;;;;;;;11.95;1.67;;;;;;;11.72;66.18;101918.09;5032982;28;20025;-52
2022/04/14 08:13:46;;;;;;;4.85;1.08;;;;;;;11.86;65.82;101919.94;5016019;28;20033;-53
2022/04/14 08:16:13;;;;;;;4.30;1.00;;;;;;;11.78;66.77;101914.66;5034761;28;20021;-52
2022/04/14 08:18:40;;;;;;;6.38;1.30;;;;;;;11.95;65.58;101919.84;5033802;28;20086;-52
2022/04/14 08:21:07;;;;;;;4.97;0.95;;;;;;;11.87;64.86;101932.31;5032738;28;20021;-52
2022/04/14 08:23:38;;;;;;;7.40;1.38;;;;;;;11.81;66.40;101930.41;5034437;28;20030;-52
2022/04/14 08:26:08;;;;;;;5.75;1.10;;;;;;;11.81;66.25;101930.41;5033622;28;20044;-52
2022/04/14 08:28:40;;;;;;;3.75;1.10;;;;;;;11.76;66.76;101935.44;5033430;28;20057;-52
2022/04/14 08:31:09;;;;;;;3.13;1.10;;;;;;;11.76;67.06;101940.00;5034610;28;20042;-53
2022/04/14 08:33:37;;;;;;;7.55;1.20;;;;;;;11.84;66.48;101935.41;5033974;28;20134;-52
2022/04/14 08:36:12;;;;;;;4.30;1.63;;;;;;;11.95;66.31;101941.31;5034910;28;20036;-52
2022/04/14 08:38:46;;;;;;;3.50;1.10;;;;;;;11.82;67.05;101940.09;5033659;28;20091;-52
2022/04/14 08:41:14;;;;;;;9.15;1.45;;;;;;;11.92;66.78;101930.94;5033887;28;20064;-52
2022/04/14 08:43:51;;;;;;;2.92;1.40;;;;;;;11.89;67.27;101921.44;5033126;28;20054;-52
2022/04/14 08:46:19;;;;;;;6.53;1.17;;;;;;;11.83;67.75;101923.00;5034240;28;20553;-52
2022/04/14 08:48:52;;;;;;;2.95;1.30;;;;;;;11.98;67.20;101925.63;5033366;28;20064;-52
2022/04/14 08:51:20;;;;;;;4.50;1.00;;;;;;;11.94;66.55;101910.97;5032954;28;20117;-52
2022/04/14 08:53:50;;;;;;;5.07;1.30;;;;;;;12.07;67.21;101902.22;5023403;28;20021;-52
2022/04/14 08:56:17;;;;;;;3.55;1.23;;;;;;;12.03;66.75;101887.50;5032932;28;20460;-52
2022/04/14 08:58:44;;;;;;;3.28;1.60;;;;;;;12.16;66.70;101882.31;5032926;28;20030;-53
2022/04/14 09:01:13;;;;;;;4.28;1.20;;;;;;;12.18;66.80;101882.94;5032969;28;20026;-52
2022/04/14 09:03:42;;;;;;;8.13;1.13;;;;;;;12.13;66.22;101870.09;5023732;28;20029;-53
2022/04/14 09:06:08;;;;;;;4.07;1.10;;;;;;;12.22;66.25;101870.81;5031632;28;20393;-52
2022/04/14 09:08:35;;;;;;;3.97;1.30;;;;;;;12.17;66.57;101869.72;5031954;28;20056;-53
2022/04/14 09:11:01;;;;;;;5.40;1.30;;;;;;;12.16;66.24;101874.25;5033077;28;20029;-53
2022/04/14 09:13:27;;;;;;;8.18;1.88;;;;;;;12.14;66.08;101873.59;5032673;28;20033;-50
2022/04/14 09:15:54;;;;;;;4.63;1.08;;;;;;;12.16;65.80;101860.84;5033336;28;20025;-53
2022/04/14 09:18:20;;;;;;;5.78;0.90;;;;;;;12.08;66.32;101851.03;5032567;28;20152;-52
2022/04/14 09:20:48;;;;;;;5.18;1.40;;;;;;;11.92;67.10;101834.34;5031499;28;20025;-53
2022/04/14 09:23:22;;;;;;;4.18;1.40;;;;;;;12.22;65.92;101838.59;5032814;28;20029;-53
2022/04/14 09:25:53;;;;;;;3.38;1.10;;;;;;;12.12;66.46;101854.19;5030357;28;20421;-52
2022/04/14 09:28:21;;;;;;;5.20;1.23;;;;;;;12.25;65.46;101835.50;5033069;28;20021;-52
2022/04/14 09:31:02;;;;;;;4.25;1.40;;;;;;;12.19;66.24;101851.56;5032274;28;20420;-52
2022/04/14 09:33:30;;;;;;;5.38;1.38;;;;;;;12.21;66.57;101847.63;5033308;28;20473;-53
2022/04/14 09:36:13;;;;;;;4.03;1.45;;;;;;;12.34;65.65;101839.72;5032524;28;20503;-53
2022/04/14 09:39:01;;;;;;;5.03;1.17;;;;;;;12.27;66.04;101840.66;5031461;28;20029;-53
2022/04/14 09:41:31;;;;;;;3.40;1.10;;;;;;;12.28;66.25;101827.06;5024374;28;20117;-52
2022/04/14 09:43:58;;;;;;;3.63;1.20;;;;;;;12.25;66.40;101832.81;5032395;28;20534;-51
2022/04/14 09:46:25;;;;;;;6.68;1.48;;;;;;;12.15;66.43;101818.88;5032377;28;20029;-52
2022/04/14 09:49:07;;;;;;;4.93;1.40;;;;;;;12.26;66.11;101810.31;5030456;28;20041;-54
2022/04/14 09:51:35;;;;;;;3.00;1.20;;;;;;;12.24;65.96;101808.88;5015911;28;20037;-49
2022/04/14 09:54:17;;;;;;;4.00;1.17;;;;;;;12.17;66.14;101803.44;5015019;28;20151;-50
2022/04/14 09:56:51;;;;;;;5.90;1.05;;;;;;;12.18;66.19;101799.72;5024827;28;20030;-51
2022/04/14 09:59:20;;;;;;;4.40;1.60;;;;;;;12.11;65.95;101799.69;5017919;28;20037;-51
2022/04/14 10:01:47;;;;;;;3.70;1.10;;;;;;;12.20;64.82;101796.84;5032308;28;20503;-52
2022/04/14 10:04:37;;;;;;;5.50;1.55;;;;;;;12.14;65.87;101791.22;5031817;28;20041;-52
2022/04/14 10:07:16;;;;;;;3.83;1.10;;;;;;;12.22;66.05;101798.31;5021817;28;20038;-52
2022/04/14 10:09:44;;;;;;;3.67;1.40;;;;;;;12.21;67.19;101798.50;5031375;28;20440;-52
2022/04/14 10:12:20;;;;;;;4.47;1.10;;;;;;;12.30;66.81;101786.59;5032185;28;20021;-49
2022/04/14 10:15:02;;;;;;;4.60;1.20;;;;;;;12.22;68.02;101789.44;5030893;28;20032;-52
2022/04/14 10:17:32;;;;;;;2.33;1.17;;;;;;;12.08;68.43;101777.75;5031719;28;20026;-53
2022/04/14 10:19:58;;;;;;;6.85;1.15;;;;;;;12.15;68.11;101779.47;5031180;28;20032;-52
2022/04/14 10:22:26;;;;;;;6.25;1.35;;;;;;;12.21;68.17;101783.22;5030434;28;20087;-52
2022/04/14 10:24:53;;;;;;;7.90;1.42;;;;;;;12.27;67.64;101769.06;5032221;28;20033;-51
2022/04/14 10:27:21;;;;;;;1.95;0.95;;;;;;;12.25;68.97;101767.56;5031300;28;20025;-48
2022/04/14 10:29:49;;;;;;;5.07;1.23;;;;;;;12.30;68.77;101749.84;5030754;28;20049;-52
2022/04/14 10:32:16;;;;;;;5.53;1.40;;;;;;;12.24;69.01;101734.53;5032214;28;20025;-51
2022/04/14 10:34:42;;;;;;;6.75;1.20;;;;;;;12.18;69.32;101750.59;5030661;28;20028;-51
2022/04/14 10:37:10;;;;;;;4.55;1.00;;;;;;;12.24;69.30;101755.19;5030782;28;20173;-51
2022/04/14 10:39:42;;;;;;;3.38;1.15;;;;;;;12.19;70.34;101760.28;5031094;28;20033;-50
2022/04/14 10:42:10;;;;;;;4.05;1.38;;;;;;;12.26;69.60;101747.75;5031826;28;20033;-49
2022/04/14 10:44:51;;;;;;;3.38;1.23;;;;;;;12.14;70.95;101744.78;5029213;28;20428;-49
2022/04/14 10:47:54;;;;;;;7.35;1.52;;;;;;;11.97;71.61;101727.28;5029429;28;20073;-51
2022/04/14 10:50:23;;;;;;;4.88;1.08;;;;;;;12.06;70.89;101731.50;5030580;28;20116;-49
2022/04/14 10:53:06;;;;;;;5.45;1.20;;;;;;;12.12;70.75;101731.56;5029942;28;20029;-51
2022/04/14 10:55:50;;;;;;;4.97;1.20;;;;;;;11.91;71.23;101717.34;5015400;28;20088;-52
2022/04/14 10:58:40;;;;;;;8.20;1.23;;;;;;;12.10;70.68;101713.97;5031572;28;20354;-52
2022/04/14 11:01:12;;;;;;;2.67;1.00;;;;;;;11.84;71.12;101718.09;5030491;28;20119;-52
2022/04/14 11:03:49;;;;;;;4.75;1.30;;;;;;;11.75;71.71;101727.28;5031013;28;20080;-52
2022/04/14 11:06:41;;;;;;;3.50;1.45;;;;;;;11.99;71.41;101730.59;5030548;28;20033;-52
2022/04/14 11:09:08;;;;;;;6.75;1.15;;;;;;;12.05;71.22;101729.84;5011936;28;20034;-51
2022/04/14 11:12:04;;;;;;;3.28;1.30;;;;;;;11.95;71.68;101732.03;5013596;28;20495;-52
2022/04/14 11:14:35;;;;;;;5.80;1.25;;;;;;;12.14;71.31;101729.50;5014188;28;20114;-52
2022/04/14 11:17:03;;;;;;;2.90;1.25;;;;;;;12.03;72.49;101716.59;5030929;28;20037;-51
2022/04/14 11:22:08;;;;;;;6.20;1.95;;;;;;;12.06;72.41;101716.22;5361789;23;20073;-50
2022/04/14 11:24:39;;;;;;;8.80;1.58;;;;;;;12.14;72.39;101720.63;4979258;28;20073;-50
2022/04/14 11:27:09;;;;;;;4.10;1.23;;;;;;;12.27;71.29;101718.06;4981284;28;20129;-47
2022/04/14 11:29:35;;;;;;;6.15;1.77;;;;;;;12.20;71.13;101705.59;4978934;28;20085;-50
2022/04/14 11:32:02;;;;;;;4.28;1.33;;;;;;;12.20;72.34;101703.72;4990664;28;20026;-47